sensor_id;sensor_type;location;lat;lon;timestamp;temperature;humidity
56512;DHT22;42408;53.238;5.686;2023-03-03T00:01:16;1.70;99.90
56512;DHT22;42408;53.238;5.686;2023-03-03T00:03:42;1.70;99.90
56512;DHT22;42408;53.238;5.686;2023-03-03T00:06:12;1.60;99.90
56512;DHT22;42408;53.238;5.686;2023-03-03T00:08:39;1.60;99.90
56512;DHT22;42408;53.238;5.686;2023-03-03T00:11:05;1.70;99.90
56512;DHT22;42408;53.238;5.686;2023-03-03T00:13:46;1.70;99.90
56512;DHT22;42408;53.238;5.686;2023-03-03T00:16:31;1.70;99.90
56512;DHT22;42408;53.238;5.686;2023-03-03T00:18:57;1.70;99.90
56512;DHT22;42408;53.238;5.686;2023-03-03T00:23:58;1.70;99.90
56512;DHT22;42408;53.238;5.686;2023-03-03T00:26:34;1.60;99.90
56512;DHT22;42408;53.238;5.686;2023-03-03T00:29:00;1.70;99.90
56512;DHT22;42408;53.238;5.686;2023-03-03T00:31:33;1.70;99.90
56512;DHT22;42408;53.238;5.686;2023-03-03T00:36:43;1.60;99.90
56512;DHT22;42408;53.238;5.686;2023-03-03T00:39:21;1.60;99.90
56512;DHT22;42408;53.238;5.686;2023-03-03T00:41:50;1.60;99.90
56512;DHT22;42408;53.238;5.686;2023-03-03T00:46:53;1.50;99.90
56512;DHT22;42408;53.238;5.686;2023-03-03T00:49:25;1.50;99.90
56512;DHT22;42408;53.238;5.686;2023-03-03T00:51:52;1.50;99.90
56512;DHT22;42408;53.238;5.686;2023-03-03T00:54:18;1.50;99.90
56512;DHT22;42408;53.238;5.686;2023-03-03T00:56:44;1.50;99.90
56512;DHT22;42408;53.238;5.686;2023-03-03T00:59:10;1.50;99.90
56512;DHT22;42408;53.238;5.686;2023-03-03T01:01:35;1.50;99.90
56512;DHT22;42408;53.238;5.686;2023-03-03T01:04:01;1.50;99.90
56512;DHT22;42408;53.238;5.686;2023-03-03T01:06:27;1.50;99.90
56512;DHT22;42408;53.238;5.686;2023-03-03T01:08:53;1.40;99.90
56512;DHT22;42408;53.238;5.686;2023-03-03T01:11:23;1.50;99.90
56512;DHT22;42408;53.238;5.686;2023-03-03T01:13:51;1.50;99.90
56512;DHT22;42408;53.238;5.686;2023-03-03T01:16:17;1.50;99.90
56512;DHT22;42408;53.238;5.686;2023-03-03T01:18:43;1.50;99.90
56512;DHT22;42408;53.238;5.686;2023-03-03T01:21:10;1.60;99.90
56512;DHT22;42408;53.238;5.686;2023-03-03T01:23:36;1.60;99.90
56512;DHT22;42408;53.238;5.686;2023-03-03T01:26:03;1.60;99.90
56512;DHT22;42408;53.238;5.686;2023-03-03T01:28:28;1.60;99.90
56512;DHT22;42408;53.238;5.686;2023-03-03T01:30:59;1.60;99.90
56512;DHT22;42408;53.238;5.686;2023-03-03T01:33:25;1.50;99.90
56512;DHT22;42408;53.238;5.686;2023-03-03T01:35:51;1.50;99.90
56512;DHT22;42408;53.238;5.686;2023-03-03T01:38:16;1.60;99.90
56512;DHT22;42408;53.238;5.686;2023-03-03T01:40:42;1.50;99.90
56512;DHT22;42408;53.238;5.686;2023-03-03T01:43:09;1.60;99.90
56512;DHT22;42408;53.238;5.686;2023-03-03T01:48:30;1.50;99.90
56512;DHT22;42408;53.238;5.686;2023-03-03T01:51:05;1.50;99.90
56512;DHT22;42408;53.238;5.686;2023-03-03T01:53:43;1.50;99.90
56512;DHT22;42408;53.238;5.686;2023-03-03T01:56:10;1.60;99.90
56512;DHT22;42408;53.238;5.686;2023-03-03T01:58:40;1.50;99.90
56512;DHT22;42408;53.238;5.686;2023-03-03T02:01:10;1.50;99.90
56512;DHT22;42408;53.238;5.686;2023-03-03T02:03:38;1.50;99.90
56512;DHT22;42408;53.238;5.686;2023-03-03T02:06:07;1.50;99.90
56512;DHT22;42408;53.238;5.686;2023-03-03T02:08:41;1.40;99.90
56512;DHT22;42408;53.238;5.686;2023-03-03T02:11:11;1.30;99.90
56512;DHT22;42408;53.238;5.686;2023-03-03T02:13:38;2.50;99.90
56512;DHT22;42408;53.238;5.686;2023-03-03T02:16:03;1.20;99.90
56512;DHT22;42408;53.238;5.686;2023-03-03T02:18:29;1.20;99.90
56512;DHT22;42408;53.238;5.686;2023-03-03T02:26:07;1.10;99.90
56512;DHT22;42408;53.238;5.686;2023-03-03T02:28:35;1.00;99.90
56512;DHT22;42408;53.238;5.686;2023-03-03T02:31:02;1.00;99.90
56512;DHT22;42408;53.238;5.686;2023-03-03T02:33:28;1.00;99.90
56512;DHT22;42408;53.238;5.686;2023-03-03T02:35:54;1.00;99.90
56512;DHT22;42408;53.238;5.686;2023-03-03T02:38:44;0.90;99.90
56512;DHT22;42408;53.238;5.686;2023-03-03T02:41:17;0.90;99.90
56512;DHT22;42408;53.238;5.686;2023-03-03T02:43:49;0.90;99.90
56512;DHT22;42408;53.238;5.686;2023-03-03T02:46:16;0.90;99.90
56512;DHT22;42408;53.238;5.686;2023-03-03T02:48:43;0.90;99.90
56512;DHT22;42408;53.238;5.686;2023-03-03T02:51:08;0.90;99.90
56512;DHT22;42408;53.238;5.686;2023-03-03T02:53:34;0.90;99.90
56512;DHT22;42408;53.238;5.686;2023-03-03T02:55:59;0.90;99.90
56512;DHT22;42408;53.238;5.686;2023-03-03T02:58:25;0.90;99.90
56512;DHT22;42408;53.238;5.686;2023-03-03T03:00:51;0.90;99.90
56512;DHT22;42408;53.238;5.686;2023-03-03T03:03:17;1.00;99.90
56512;DHT22;42408;53.238;5.686;2023-03-03T03:05:42;1.10;99.90
56512;DHT22;42408;53.238;5.686;2023-03-03T03:08:08;1.10;99.90
56512;DHT22;42408;53.238;5.686;2023-03-03T03:10:35;1.20;99.90
56512;DHT22;42408;53.238;5.686;2023-03-03T03:13:01;1.20;99.90
56512;DHT22;42408;53.238;5.686;2023-03-03T03:15:27;1.20;99.90
56512;DHT22;42408;53.238;5.686;2023-03-03T03:17:53;1.20;99.90
56512;DHT22;42408;53.238;5.686;2023-03-03T03:20:18;1.20;99.90
56512;DHT22;42408;53.238;5.686;2023-03-03T03:22:44;1.20;99.90
56512;DHT22;42408;53.238;5.686;2023-03-03T03:25:09;1.20;99.90
56512;DHT22;42408;53.238;5.686;2023-03-03T03:27:35;1.20;99.90
56512;DHT22;42408;53.238;5.686;2023-03-03T03:30:01;1.20;99.90
56512;DHT22;42408;53.238;5.686;2023-03-03T03:32:27;1.20;99.90
56512;DHT22;42408;53.238;5.686;2023-03-03T03:34:52;1.20;99.90
56512;DHT22;42408;53.238;5.686;2023-03-03T03:37:18;1.20;99.90
56512;DHT22;42408;53.238;5.686;2023-03-03T03:39:44;1.20;99.90
56512;DHT22;42408;53.238;5.686;2023-03-03T03:42:09;1.20;99.90
56512;DHT22;42408;53.238;5.686;2023-03-03T03:44:36;1.20;99.90
56512;DHT22;42408;53.238;5.686;2023-03-03T03:47:01;1.20;99.90
56512;DHT22;42408;53.238;5.686;2023-03-03T03:49:27;1.20;99.90
56512;DHT22;42408;53.238;5.686;2023-03-03T03:51:53;1.20;99.90
56512;DHT22;42408;53.238;5.686;2023-03-03T03:54:18;1.10;99.90
56512;DHT22;42408;53.238;5.686;2023-03-03T03:56:44;1.10;99.90
56512;DHT22;42408;53.238;5.686;2023-03-03T03:59:09;1.10;99.90
56512;DHT22;42408;53.238;5.686;2023-03-03T04:01:35;1.10;99.90
56512;DHT22;42408;53.238;5.686;2023-03-03T04:04:01;1.10;99.90
56512;DHT22;42408;53.238;5.686;2023-03-03T04:06:28;1.10;99.90
56512;DHT22;42408;53.238;5.686;2023-03-03T04:08:54;1.10;99.90
56512;DHT22;42408;53.238;5.686;2023-03-03T04:11:20;1.00;99.90
56512;DHT22;42408;53.238;5.686;2023-03-03T04:13:45;1.00;99.90
56512;DHT22;42408;53.238;5.686;2023-03-03T04:16:11;1.00;99.90
56512;DHT22;42408;53.238;5.686;2023-03-03T04:18:37;1.10;99.90
56512;DHT22;42408;53.238;5.686;2023-03-03T04:21:03;1.10;99.90
56512;DHT22;42408;53.238;5.686;2023-03-03T04:23:28;1.00;99.90
56512;DHT22;42408;53.238;5.686;2023-03-03T04:25:54;1.00;99.90
56512;DHT22;42408;53.238;5.686;2023-03-03T04:28:20;1.00;99.90
56512;DHT22;42408;53.238;5.686;2023-03-03T04:30:46;1.10;99.90
56512;DHT22;42408;53.238;5.686;2023-03-03T04:33:12;1.00;99.90
56512;DHT22;42408;53.238;5.686;2023-03-03T04:35:38;1.10;99.90
56512;DHT22;42408;53.238;5.686;2023-03-03T04:38:03;1.10;99.90
56512;DHT22;42408;53.238;5.686;2023-03-03T04:40:30;1.00;99.90
56512;DHT22;42408;53.238;5.686;2023-03-03T04:42:55;1.00;99.90
56512;DHT22;42408;53.238;5.686;2023-03-03T04:45:21;1.00;99.90
56512;DHT22;42408;53.238;5.686;2023-03-03T04:47:47;0.90;99.90
56512;DHT22;42408;53.238;5.686;2023-03-03T04:50:12;0.90;99.90
56512;DHT22;42408;53.238;5.686;2023-03-03T04:52:38;0.80;99.90
56512;DHT22;42408;53.238;5.686;2023-03-03T04:55:04;0.90;99.90
56512;DHT22;42408;53.238;5.686;2023-03-03T04:57:30;0.80;99.90
56512;DHT22;42408;53.238;5.686;2023-03-03T04:59:56;0.80;99.90
56512;DHT22;42408;53.238;5.686;2023-03-03T05:02:21;0.80;99.90
56512;DHT22;42408;53.238;5.686;2023-03-03T05:04:47;0.80;99.90
56512;DHT22;42408;53.238;5.686;2023-03-03T05:07:13;0.80;99.90
56512;DHT22;42408;53.238;5.686;2023-03-03T05:09:39;0.80;99.90
56512;DHT22;42408;53.238;5.686;2023-03-03T05:12:05;0.70;99.90
56512;DHT22;42408;53.238;5.686;2023-03-03T05:14:30;0.80;99.90
56512;DHT22;42408;53.238;5.686;2023-03-03T05:16:56;0.80;99.90
56512;DHT22;42408;53.238;5.686;2023-03-03T05:19:22;0.80;99.90
56512;DHT22;42408;53.238;5.686;2023-03-03T05:21:48;0.80;99.90
56512;DHT22;42408;53.238;5.686;2023-03-03T05:24:14;0.80;99.90
56512;DHT22;42408;53.238;5.686;2023-03-03T05:26:40;0.80;99.90
56512;DHT22;42408;53.238;5.686;2023-03-03T05:29:07;0.80;99.90
56512;DHT22;42408;53.238;5.686;2023-03-03T05:31:34;0.90;99.90
56512;DHT22;42408;53.238;5.686;2023-03-03T05:34:00;0.90;99.90
56512;DHT22;42408;53.238;5.686;2023-03-03T05:36:26;0.90;99.90
56512;DHT22;42408;53.238;5.686;2023-03-03T05:38:52;0.90;99.90
56512;DHT22;42408;53.238;5.686;2023-03-03T05:41:17;0.90;99.90
56512;DHT22;42408;53.238;5.686;2023-03-03T05:43:43;1.00;99.90
56512;DHT22;42408;53.238;5.686;2023-03-03T05:46:09;1.00;99.90
56512;DHT22;42408;53.238;5.686;2023-03-03T05:48:35;1.00;99.90
56512;DHT22;42408;53.238;5.686;2023-03-03T05:51:00;1.00;99.90
56512;DHT22;42408;53.238;5.686;2023-03-03T05:53:27;0.90;99.90
56512;DHT22;42408;53.238;5.686;2023-03-03T05:55:53;1.00;99.90
56512;DHT22;42408;53.238;5.686;2023-03-03T05:58:19;1.00;99.90
56512;DHT22;42408;53.238;5.686;2023-03-03T06:00:45;1.00;99.90
56512;DHT22;42408;53.238;5.686;2023-03-03T06:03:11;1.00;99.90
56512;DHT22;42408;53.238;5.686;2023-03-03T06:05:36;0.90;99.90
56512;DHT22;42408;53.238;5.686;2023-03-03T06:08:02;0.90;99.90
56512;DHT22;42408;53.238;5.686;2023-03-03T06:10:28;0.90;99.90
56512;DHT22;42408;53.238;5.686;2023-03-03T06:12:53;0.80;99.90
56512;DHT22;42408;53.238;5.686;2023-03-03T06:15:23;0.80;99.90
56512;DHT22;42408;53.238;5.686;2023-03-03T06:17:48;0.80;99.90
56512;DHT22;42408;53.238;5.686;2023-03-03T06:20:14;0.70;99.90
56512;DHT22;42408;53.238;5.686;2023-03-03T06:22:40;0.70;99.90
56512;DHT22;42408;53.238;5.686;2023-03-03T06:25:06;0.60;99.90
56512;DHT22;42408;53.238;5.686;2023-03-03T06:27:32;0.60;99.90
56512;DHT22;42408;53.238;5.686;2023-03-03T06:29:57;0.60;99.90
56512;DHT22;42408;53.238;5.686;2023-03-03T06:32:23;0.60;99.90
56512;DHT22;42408;53.238;5.686;2023-03-03T06:34:49;0.50;99.90
56512;DHT22;42408;53.238;5.686;2023-03-03T06:37:14;0.50;99.90
56512;DHT22;42408;53.238;5.686;2023-03-03T06:39:40;0.50;99.90
56512;DHT22;42408;53.238;5.686;2023-03-03T06:42:06;0.50;99.90
56512;DHT22;42408;53.238;5.686;2023-03-03T06:44:34;0.50;99.90
56512;DHT22;42408;53.238;5.686;2023-03-03T06:47:00;0.50;99.90
56512;DHT22;42408;53.238;5.686;2023-03-03T06:49:26;0.50;99.90
56512;DHT22;42408;53.238;5.686;2023-03-03T06:51:52;0.50;99.90
56512;DHT22;42408;53.238;5.686;2023-03-03T06:54:20;0.60;99.90
56512;DHT22;42408;53.238;5.686;2023-03-03T06:56:48;0.60;99.90
56512;DHT22;42408;53.238;5.686;2023-03-03T06:59:18;0.70;99.90
56512;DHT22;42408;53.238;5.686;2023-03-03T07:01:47;0.70;99.90
56512;DHT22;42408;53.238;5.686;2023-03-03T07:04:21;0.70;99.90
56512;DHT22;42408;53.238;5.686;2023-03-03T07:06:47;0.80;99.90
56512;DHT22;42408;53.238;5.686;2023-03-03T07:09:25;0.80;99.90
56512;DHT22;42408;53.238;5.686;2023-03-03T07:11:52;0.90;99.90
56512;DHT22;42408;53.238;5.686;2023-03-03T07:14:20;1.10;99.90
56512;DHT22;42408;53.238;5.686;2023-03-03T07:16:49;1.20;99.90
56512;DHT22;42408;53.238;5.686;2023-03-03T07:19:19;1.30;99.90
56512;DHT22;42408;53.238;5.686;2023-03-03T07:21:47;1.50;99.90
56512;DHT22;42408;53.238;5.686;2023-03-03T07:24:28;1.70;99.90
56512;DHT22;42408;53.238;5.686;2023-03-03T07:26:58;1.90;99.90
56512;DHT22;42408;53.238;5.686;2023-03-03T07:29:27;2.10;99.90
56512;DHT22;42408;53.238;5.686;2023-03-03T07:31:56;2.20;99.90
56512;DHT22;42408;53.238;5.686;2023-03-03T07:34:23;2.30;99.90
56512;DHT22;42408;53.238;5.686;2023-03-03T07:36:53;2.40;99.90
56512;DHT22;42408;53.238;5.686;2023-03-03T07:42:01;2.50;99.90
56512;DHT22;42408;53.238;5.686;2023-03-03T07:44:35;2.50;99.90
56512;DHT22;42408;53.238;5.686;2023-03-03T07:47:18;2.60;99.90
56512;DHT22;42408;53.238;5.686;2023-03-03T07:49:46;2.70;99.90
56512;DHT22;42408;53.238;5.686;2023-03-03T07:52:34;2.80;99.90
56512;DHT22;42408;53.238;5.686;2023-03-03T07:55:35;2.90;99.90
56512;DHT22;42408;53.238;5.686;2023-03-03T07:58:17;3.10;99.90
56512;DHT22;42408;53.238;5.686;2023-03-03T08:03:49;3.50;99.90
56512;DHT22;42408;53.238;5.686;2023-03-03T08:12:28;4.00;99.90
56512;DHT22;42408;53.238;5.686;2023-03-03T08:14:46;4.00;99.90
56512;DHT22;42408;53.238;5.686;2023-03-03T08:17:19;4.00;99.90
56512;DHT22;42408;53.238;5.686;2023-03-03T08:19:45;4.10;99.90
56512;DHT22;42408;53.238;5.686;2023-03-03T08:22:16;4.10;99.90
56512;DHT22;42408;53.238;5.686;2023-03-03T08:24:42;4.20;99.90
56512;DHT22;42408;53.238;5.686;2023-03-03T08:27:08;4.30;99.90
56512;DHT22;42408;53.238;5.686;2023-03-03T08:29:34;4.30;99.90
56512;DHT22;42408;53.238;5.686;2023-03-03T08:31:59;4.40;99.90
56512;DHT22;42408;53.238;5.686;2023-03-03T08:34:25;4.50;99.90
56512;DHT22;42408;53.238;5.686;2023-03-03T08:36:50;4.50;99.90
56512;DHT22;42408;53.238;5.686;2023-03-03T08:39:16;4.70;99.90
56512;DHT22;42408;53.238;5.686;2023-03-03T08:41:42;4.60;99.90
56512;DHT22;42408;53.238;5.686;2023-03-03T08:44:09;4.70;99.90
56512;DHT22;42408;53.238;5.686;2023-03-03T08:46:35;4.80;99.90
56512;DHT22;42408;53.238;5.686;2023-03-03T08:49:01;4.80;99.90
56512;DHT22;42408;53.238;5.686;2023-03-03T08:51:27;5.60;99.90
56512;DHT22;42408;53.238;5.686;2023-03-03T08:53:53;4.90;99.90
56512;DHT22;42408;53.238;5.686;2023-03-03T08:56:19;5.00;99.90
56512;DHT22;42408;53.238;5.686;2023-03-03T08:58:45;5.00;99.90
56512;DHT22;42408;53.238;5.686;2023-03-03T09:01:13;5.20;99.90
56512;DHT22;42408;53.238;5.686;2023-03-03T09:03:41;5.10;99.90
56512;DHT22;42408;53.238;5.686;2023-03-03T09:06:07;5.20;99.90
56512;DHT22;42408;53.238;5.686;2023-03-03T09:08:33;5.20;99.90
56512;DHT22;42408;53.238;5.686;2023-03-03T09:10:59;5.30;99.90
56512;DHT22;42408;53.238;5.686;2023-03-03T09:13:28;5.30;99.90
56512;DHT22;42408;53.238;5.686;2023-03-03T09:15:56;5.40;99.90
56512;DHT22;42408;53.238;5.686;2023-03-03T09:18:31;5.50;99.90
56512;DHT22;42408;53.238;5.686;2023-03-03T09:20:59;5.50;99.90
56512;DHT22;42408;53.238;5.686;2023-03-03T09:23:40;5.60;99.90
56512;DHT22;42408;53.238;5.686;2023-03-03T09:26:45;5.60;99.90
56512;DHT22;42408;53.238;5.686;2023-03-03T09:31:45;5.70;99.90
56512;DHT22;42408;53.238;5.686;2023-03-03T09:37:01;5.70;99.90
56512;DHT22;42408;53.238;5.686;2023-03-03T09:39:29;5.70;99.90
56512;DHT22;42408;53.238;5.686;2023-03-03T09:47:34;5.90;99.90
56512;DHT22;42408;53.238;5.686;2023-03-03T10:06:44;6.20;99.90
56512;DHT22;42408;53.238;5.686;2023-03-03T10:12:29;6.30;99.90
56512;DHT22;42408;53.238;5.686;2023-03-03T10:17:40;6.50;99.90
56512;DHT22;42408;53.238;5.686;2023-03-03T10:23:23;6.70;99.90
56512;DHT22;42408;53.238;5.686;2023-03-03T10:31:54;7.10;99.90
56512;DHT22;42408;53.238;5.686;2023-03-03T10:34:34;7.20;99.90
56512;DHT22;42408;53.238;5.686;2023-03-03T10:37:20;7.20;99.90
56512;DHT22;42408;53.238;5.686;2023-03-03T10:42:39;7.40;99.90
56512;DHT22;42408;53.238;5.686;2023-03-03T10:55:34;7.80;99.90
56512;DHT22;42408;53.238;5.686;2023-03-03T11:11:52;8.00;99.90
56512;DHT22;42408;53.238;5.686;2023-03-03T11:14:42;8.10;99.90
56512;DHT22;42408;53.238;5.686;2023-03-03T11:31:21;8.30;99.90
56512;DHT22;42408;53.238;5.686;2023-03-03T11:36:47;8.30;99.90
56512;DHT22;42408;53.238;5.686;2023-03-03T11:39:21;8.40;99.90
56512;DHT22;42408;53.238;5.686;2023-03-03T11:42:13;8.30;99.90
56512;DHT22;42408;53.238;5.686;2023-03-03T11:45:17;8.30;99.90
56512;DHT22;42408;53.238;5.686;2023-03-03T11:50:49;8.30;99.90
56512;DHT22;42408;53.238;5.686;2023-03-03T11:53:44;8.20;99.90
56512;DHT22;42408;53.238;5.686;2023-03-03T11:56:29;8.20;99.90
56512;DHT22;42408;53.238;5.686;2023-03-03T11:59:17;8.20;99.90
56512;DHT22;42408;53.238;5.686;2023-03-03T12:02:13;8.20;99.90
56512;DHT22;42408;53.238;5.686;2023-03-03T12:07:28;8.20;99.90
56512;DHT22;42408;53.238;5.686;2023-03-03T12:12:44;8.50;99.90
56512;DHT22;42408;53.238;5.686;2023-03-03T12:15:53;8.80;99.90
56512;DHT22;42408;53.238;5.686;2023-03-03T12:18:33;9.00;99.90
56512;DHT22;42408;53.238;5.686;2023-03-03T12:23:45;9.20;99.90
56512;DHT22;42408;53.238;5.686;2023-03-03T12:26:24;9.20;99.90
56512;DHT22;42408;53.238;5.686;2023-03-03T12:29:04;9.30;99.90
56512;DHT22;42408;53.238;5.686;2023-03-03T12:34:18;9.20;99.90
56512;DHT22;42408;53.238;5.686;2023-03-03T12:39:26;9.10;99.90
56512;DHT22;42408;53.238;5.686;2023-03-03T12:47:28;9.00;99.90
56512;DHT22;42408;53.238;5.686;2023-03-03T12:56:03;8.80;99.90
56512;DHT22;42408;53.238;5.686;2023-03-03T12:58:42;8.70;99.90
56512;DHT22;42408;53.238;5.686;2023-03-03T13:04:32;8.60;99.90
56512;DHT22;42408;53.238;5.686;2023-03-03T13:10:07;8.40;99.90
56512;DHT22;42408;53.238;5.686;2023-03-03T13:12:47;8.40;99.90
56512;DHT22;42408;53.238;5.686;2023-03-03T13:15:27;8.40;99.90
56512;DHT22;42408;53.238;5.686;2023-03-03T13:18:36;8.30;99.90
56512;DHT22;42408;53.238;5.686;2023-03-03T13:21:28;8.30;99.90
56512;DHT22;42408;53.238;5.686;2023-03-03T13:24:06;8.20;99.90
56512;DHT22;42408;53.238;5.686;2023-03-03T13:26:39;8.20;99.90
56512;DHT22;42408;53.238;5.686;2023-03-03T13:29:14;8.20;99.90
56512;DHT22;42408;53.238;5.686;2023-03-03T13:31:53;8.20;99.90
56512;DHT22;42408;53.238;5.686;2023-03-03T13:37:01;8.20;99.90
56512;DHT22;42408;53.238;5.686;2023-03-03T13:39:44;8.20;99.90
56512;DHT22;42408;53.238;5.686;2023-03-03T13:42:51;8.20;99.90
56512;DHT22;42408;53.238;5.686;2023-03-03T13:50:59;8.20;99.90
56512;DHT22;42408;53.238;5.686;2023-03-03T13:56:30;8.20;99.90
56512;DHT22;42408;53.238;5.686;2023-03-03T14:07:11;8.20;99.90
56512;DHT22;42408;53.238;5.686;2023-03-03T14:09:56;8.20;99.90
56512;DHT22;42408;53.238;5.686;2023-03-03T14:12:39;8.20;99.90
56512;DHT22;42408;53.238;5.686;2023-03-03T14:15:28;8.20;99.90
56512;DHT22;42408;53.238;5.686;2023-03-03T14:18:10;8.20;99.90
56512;DHT22;42408;53.238;5.686;2023-03-03T14:20:43;8.20;99.90
56512;DHT22;42408;53.238;5.686;2023-03-03T14:26:08;8.20;99.90
56512;DHT22;42408;53.238;5.686;2023-03-03T14:31:16;8.20;99.90
56512;DHT22;42408;53.238;5.686;2023-03-03T14:34:14;8.10;99.90
56512;DHT22;42408;53.238;5.686;2023-03-03T14:36:47;8.10;99.90
56512;DHT22;42408;53.238;5.686;2023-03-03T14:39:35;8.10;99.90
56512;DHT22;42408;53.238;5.686;2023-03-03T14:42:55;8.10;99.90
56512;DHT22;42408;53.238;5.686;2023-03-03T14:45:37;8.10;99.90
56512;DHT22;42408;53.238;5.686;2023-03-03T14:50:45;8.10;99.90
56512;DHT22;42408;53.238;5.686;2023-03-03T14:55:45;8.10;99.90
56512;DHT22;42408;53.238;5.686;2023-03-03T14:58:37;8.10;99.90
56512;DHT22;42408;53.238;5.686;2023-03-03T15:01:16;8.10;99.90
56512;DHT22;42408;53.238;5.686;2023-03-03T15:04:00;8.00;99.90
56512;DHT22;42408;53.238;5.686;2023-03-03T15:06:44;8.00;99.90
56512;DHT22;42408;53.238;5.686;2023-03-03T15:11:53;8.00;99.90
56512;DHT22;42408;53.238;5.686;2023-03-03T15:14:29;7.90;99.90
56512;DHT22;42408;53.238;5.686;2023-03-03T15:17:38;8.00;99.90
56512;DHT22;42408;53.238;5.686;2023-03-03T15:22:50;7.90;99.90
56512;DHT22;42408;53.238;5.686;2023-03-03T15:25:27;7.90;99.90
56512;DHT22;42408;53.238;5.686;2023-03-03T15:30:41;7.90;99.90
56512;DHT22;42408;53.238;5.686;2023-03-03T15:41:46;7.80;99.90
56512;DHT22;42408;53.238;5.686;2023-03-03T15:44:25;7.70;99.90
56512;DHT22;42408;53.238;5.686;2023-03-03T15:46:56;7.70;99.90
56512;DHT22;42408;53.238;5.686;2023-03-03T15:58:29;7.60;99.90
56512;DHT22;42408;53.238;5.686;2023-03-03T16:04:08;7.60;99.90
56512;DHT22;42408;53.238;5.686;2023-03-03T16:06:46;7.50;99.90
56512;DHT22;42408;53.238;5.686;2023-03-03T16:09:39;7.50;99.90
56512;DHT22;42408;53.238;5.686;2023-03-03T16:17:59;7.40;99.90
56512;DHT22;42408;53.238;5.686;2023-03-03T16:28:46;7.30;99.90
56512;DHT22;42408;53.238;5.686;2023-03-03T16:31:30;7.30;99.90
56512;DHT22;42408;53.238;5.686;2023-03-03T16:34:21;7.20;99.90
56512;DHT22;42408;53.238;5.686;2023-03-03T16:39:41;7.30;99.90
56512;DHT22;42408;53.238;5.686;2023-03-03T16:42:29;7.20;99.90
56512;DHT22;42408;53.238;5.686;2023-03-03T16:45:46;7.20;99.90
56512;DHT22;42408;53.238;5.686;2023-03-03T17:06:58;7.10;99.90
56512;DHT22;42408;53.238;5.686;2023-03-03T17:09:37;7.10;99.90
56512;DHT22;42408;53.238;5.686;2023-03-03T17:15:19;7.00;99.90
56512;DHT22;42408;53.238;5.686;2023-03-03T17:20:57;7.00;99.90
56512;DHT22;42408;53.238;5.686;2023-03-03T17:33:44;6.90;99.90
56512;DHT22;42408;53.238;5.686;2023-03-03T17:44:56;6.80;99.90
56512;DHT22;42408;53.238;5.686;2023-03-03T17:56:16;6.80;99.90
56512;DHT22;42408;53.238;5.686;2023-03-03T18:01:44;6.70;99.90
56512;DHT22;42408;53.238;5.686;2023-03-03T18:12:34;6.70;99.90
56512;DHT22;42408;53.238;5.686;2023-03-03T18:20:54;6.70;99.90
56512;DHT22;42408;53.238;5.686;2023-03-03T18:25:58;6.70;99.90
56512;DHT22;42408;53.238;5.686;2023-03-03T18:28:49;6.60;99.90
56512;DHT22;42408;53.238;5.686;2023-03-03T18:31:24;6.60;99.90
56512;DHT22;42408;53.238;5.686;2023-03-03T18:38:53;6.60;99.90
56512;DHT22;42408;53.238;5.686;2023-03-03T18:41:27;6.60;99.90
56512;DHT22;42408;53.238;5.686;2023-03-03T18:44:23;6.60;99.90
56512;DHT22;42408;53.238;5.686;2023-03-03T18:46:51;6.60;99.90
56512;DHT22;42408;53.238;5.686;2023-03-03T18:49:17;6.60;99.90
56512;DHT22;42408;53.238;5.686;2023-03-03T18:53:04;6.60;99.90
56512;DHT22;42408;53.238;5.686;2023-03-03T18:57:36;6.60;99.90
56512;DHT22;42408;53.238;5.686;2023-03-03T19:00:20;6.50;99.90
56512;DHT22;42408;53.238;5.686;2023-03-03T19:02:52;6.50;99.90
56512;DHT22;42408;53.238;5.686;2023-03-03T19:05:23;6.50;99.90
56512;DHT22;42408;53.238;5.686;2023-03-03T19:07:56;6.50;99.90
56512;DHT22;42408;53.238;5.686;2023-03-03T19:12:54;6.40;99.90
56512;DHT22;42408;53.238;5.686;2023-03-03T19:20:55;6.50;99.90
56512;DHT22;42408;53.238;5.686;2023-03-03T19:40:41;6.40;99.90
56512;DHT22;42408;53.238;5.686;2023-03-03T20:01:12;6.40;99.90
56512;DHT22;42408;53.238;5.686;2023-03-03T20:11:45;6.50;99.90
56512;DHT22;42408;53.238;5.686;2023-03-03T20:22:36;6.40;99.90
56512;DHT22;42408;53.238;5.686;2023-03-03T20:30:45;6.40;99.90
56512;DHT22;42408;53.238;5.686;2023-03-03T20:35:58;6.40;99.90
56512;DHT22;42408;53.238;5.686;2023-03-03T20:41:29;6.40;99.90
56512;DHT22;42408;53.238;5.686;2023-03-03T20:46:44;6.30;99.90
56512;DHT22;42408;53.238;5.686;2023-03-03T20:51:50;6.30;99.90
56512;DHT22;42408;53.238;5.686;2023-03-03T21:05:14;6.40;99.90
56512;DHT22;42408;53.238;5.686;2023-03-03T21:07:54;6.30;99.90
56512;DHT22;42408;53.238;5.686;2023-03-03T21:10:23;6.30;99.90
56512;DHT22;42408;53.238;5.686;2023-03-03T21:12:51;6.30;99.90
56512;DHT22;42408;53.238;5.686;2023-03-03T21:15:30;6.30;99.90
56512;DHT22;42408;53.238;5.686;2023-03-03T21:17:56;6.30;99.90
56512;DHT22;42408;53.238;5.686;2023-03-03T21:20:29;6.30;99.90
56512;DHT22;42408;53.238;5.686;2023-03-03T21:22:56;6.20;99.90
56512;DHT22;42408;53.238;5.686;2023-03-03T21:25:42;6.20;99.90
56512;DHT22;42408;53.238;5.686;2023-03-03T21:31:04;6.20;99.90
56512;DHT22;42408;53.238;5.686;2023-03-03T21:37:02;6.30;99.90
56512;DHT22;42408;53.238;5.686;2023-03-03T21:39:19;6.20;99.90
56512;DHT22;42408;53.238;5.686;2023-03-03T21:42:07;6.20;99.90
56512;DHT22;42408;53.238;5.686;2023-03-03T21:47:10;6.30;99.90
56512;DHT22;42408;53.238;5.686;2023-03-03T21:49:43;6.20;99.90
56512;DHT22;42408;53.238;5.686;2023-03-03T21:52:10;6.20;99.90
56512;DHT22;42408;53.238;5.686;2023-03-03T21:54:36;6.20;99.90
56512;DHT22;42408;53.238;5.686;2023-03-03T21:57:02;6.20;99.90
56512;DHT22;42408;53.238;5.686;2023-03-03T21:59:29;6.20;99.90
56512;DHT22;42408;53.238;5.686;2023-03-03T22:01:54;6.30;99.90
56512;DHT22;42408;53.238;5.686;2023-03-03T22:04:20;6.20;99.90
56512;DHT22;42408;53.238;5.686;2023-03-03T22:06:46;6.30;99.90
56512;DHT22;42408;53.238;5.686;2023-03-03T22:09:11;6.20;99.90
56512;DHT22;42408;53.238;5.686;2023-03-03T22:11:37;6.20;99.90
56512;DHT22;42408;53.238;5.686;2023-03-03T22:14:05;6.30;99.90
56512;DHT22;42408;53.238;5.686;2023-03-03T22:16:31;6.20;99.90
56512;DHT22;42408;53.238;5.686;2023-03-03T22:18:57;6.20;99.90
56512;DHT22;42408;53.238;5.686;2023-03-03T22:21:23;6.30;99.90
56512;DHT22;42408;53.238;5.686;2023-03-03T22:23:48;6.30;99.90
56512;DHT22;42408;53.238;5.686;2023-03-03T22:26:14;6.30;99.90
56512;DHT22;42408;53.238;5.686;2023-03-03T22:28:40;6.30;99.90
56512;DHT22;42408;53.238;5.686;2023-03-03T22:31:06;6.30;99.90
56512;DHT22;42408;53.238;5.686;2023-03-03T22:33:32;6.20;99.90
56512;DHT22;42408;53.238;5.686;2023-03-03T22:35:57;6.20;99.90
56512;DHT22;42408;53.238;5.686;2023-03-03T22:38:23;6.20;99.90
56512;DHT22;42408;53.238;5.686;2023-03-03T22:40:50;6.20;99.90
56512;DHT22;42408;53.238;5.686;2023-03-03T22:43:16;6.20;99.90
56512;DHT22;42408;53.238;5.686;2023-03-03T22:45:42;6.30;99.90
56512;DHT22;42408;53.238;5.686;2023-03-03T22:48:09;6.30;99.90
56512;DHT22;42408;53.238;5.686;2023-03-03T22:50:35;6.30;99.90